sensor_id;sensor_type;location;lat;lon;timestamp;temperature;humidity
53962;DHT22;39868;53.398;6.564;2023-06-14T00:02:02;19.70;52.80
53962;DHT22;39868;53.398;6.564;2023-06-14T00:04:30;19.70;52.80
53962;DHT22;39868;53.398;6.564;2023-06-14T00:06:58;19.60;52.80
53962;DHT22;39868;53.398;6.564;2023-06-14T00:09:25;19.60;52.90
53962;DHT22;39868;53.398;6.564;2023-06-14T00:11:53;19.60;53.00
53962;DHT22;39868;53.398;6.564;2023-06-14T00:14:20;19.60;53.10
53962;DHT22;39868;53.398;6.564;2023-06-14T00:16:47;19.50;53.30
53962;DHT22;39868;53.398;6.564;2023-06-14T00:19:15;19.50;53.30
53962;DHT22;39868;53.398;6.564;2023-06-14T00:21:43;19.50;53.40
53962;DHT22;39868;53.398;6.564;2023-06-14T00:24:11;19.50;53.40
53962;DHT22;39868;53.398;6.564;2023-06-14T00:26:38;19.50;53.50
53962;DHT22;39868;53.398;6.564;2023-06-14T00:29:06;19.40;53.40
53962;DHT22;39868;53.398;6.564;2023-06-14T00:31:33;19.40;53.60
53962;DHT22;39868;53.398;6.564;2023-06-14T00:34:00;19.40;53.80
53962;DHT22;39868;53.398;6.564;2023-06-14T00:36:28;19.30;53.70
53962;DHT22;39868;53.398;6.564;2023-06-14T00:38:55;19.30;53.90
53962;DHT22;39868;53.398;6.564;2023-06-14T00:41:22;19.30;53.90
53962;DHT22;39868;53.398;6.564;2023-06-14T00:43:50;19.30;54.10
53962;DHT22;39868;53.398;6.564;2023-06-14T00:46:19;19.20;54.10
53962;DHT22;39868;53.398;6.564;2023-06-14T00:48:47;19.20;54.10
53962;DHT22;39868;53.398;6.564;2023-06-14T00:51:16;19.20;54.30
53962;DHT22;39868;53.398;6.564;2023-06-14T00:53:44;19.10;54.30
53962;DHT22;39868;53.398;6.564;2023-06-14T00:56:14;19.10;54.40
53962;DHT22;39868;53.398;6.564;2023-06-14T00:58:43;19.10;54.50
53962;DHT22;39868;53.398;6.564;2023-06-14T01:01:11;19.10;54.60
53962;DHT22;39868;53.398;6.564;2023-06-14T01:03:38;19.10;54.80
53962;DHT22;39868;53.398;6.564;2023-06-14T01:06:27;19.10;54.90
53962;DHT22;39868;53.398;6.564;2023-06-14T01:09:31;19.00;54.80
53962;DHT22;39868;53.398;6.564;2023-06-14T01:12:07;19.00;54.70
53962;DHT22;39868;53.398;6.564;2023-06-14T01:14:38;19.00;55.30
53962;DHT22;39868;53.398;6.564;2023-06-14T01:17:07;19.00;55.20
53962;DHT22;39868;53.398;6.564;2023-06-14T01:19:43;18.90;55.40
53962;DHT22;39868;53.398;6.564;2023-06-14T01:22:13;18.90;55.20
53962;DHT22;39868;53.398;6.564;2023-06-14T01:24:41;18.90;55.60
53962;DHT22;39868;53.398;6.564;2023-06-14T01:27:13;18.90;55.40
53962;DHT22;39868;53.398;6.564;2023-06-14T01:29:43;18.80;55.60
53962;DHT22;39868;53.398;6.564;2023-06-14T01:32:14;18.80;55.60
53962;DHT22;39868;53.398;6.564;2023-06-14T01:34:42;18.80;55.80
53962;DHT22;39868;53.398;6.564;2023-06-14T01:37:11;18.80;55.90
53962;DHT22;39868;53.398;6.564;2023-06-14T01:39:41;18.70;55.80
53962;DHT22;39868;53.398;6.564;2023-06-14T01:42:11;18.70;56.10
53962;DHT22;39868;53.398;6.564;2023-06-14T01:44:42;18.60;56.30
53962;DHT22;39868;53.398;6.564;2023-06-14T01:47:10;18.60;56.30
53962;DHT22;39868;53.398;6.564;2023-06-14T01:49:38;18.60;56.20
53962;DHT22;39868;53.398;6.564;2023-06-14T01:52:08;18.60;56.30
53962;DHT22;39868;53.398;6.564;2023-06-14T01:54:37;18.50;56.30
53962;DHT22;39868;53.398;6.564;2023-06-14T01:57:09;18.50;56.50
53962;DHT22;39868;53.398;6.564;2023-06-14T01:59:38;18.50;56.50
53962;DHT22;39868;53.398;6.564;2023-06-14T02:02:05;18.50;56.60
53962;DHT22;39868;53.398;6.564;2023-06-14T02:04:32;18.40;56.80
53962;DHT22;39868;53.398;6.564;2023-06-14T02:07:00;18.40;56.90
53962;DHT22;39868;53.398;6.564;2023-06-14T02:09:27;18.40;57.00
53962;DHT22;39868;53.398;6.564;2023-06-14T02:11:54;18.40;57.00
53962;DHT22;39868;53.398;6.564;2023-06-14T02:14:23;18.40;57.10
53962;DHT22;39868;53.398;6.564;2023-06-14T02:16:50;18.40;57.30
53962;DHT22;39868;53.398;6.564;2023-06-14T02:19:19;18.30;57.60
53962;DHT22;39868;53.398;6.564;2023-06-14T02:21:47;18.30;57.50
53962;DHT22;39868;53.398;6.564;2023-06-14T02:24:15;18.30;57.50
53962;DHT22;39868;53.398;6.564;2023-06-14T02:26:42;18.30;57.50
53962;DHT22;39868;53.398;6.564;2023-06-14T02:29:14;18.20;57.60
53962;DHT22;39868;53.398;6.564;2023-06-14T02:31:42;18.20;57.60
53962;DHT22;39868;53.398;6.564;2023-06-14T02:34:09;18.20;57.80
53962;DHT22;39868;53.398;6.564;2023-06-14T02:36:37;18.20;57.90
53962;DHT22;39868;53.398;6.564;2023-06-14T02:39:09;18.20;58.70
53962;DHT22;39868;53.398;6.564;2023-06-14T02:41:38;18.10;58.10
53962;DHT22;39868;53.398;6.564;2023-06-14T02:44:06;18.10;58.30
53962;DHT22;39868;53.398;6.564;2023-06-14T02:46:33;18.10;58.30
53962;DHT22;39868;53.398;6.564;2023-06-14T02:49:01;18.10;58.40
53962;DHT22;39868;53.398;6.564;2023-06-14T02:51:29;18.10;58.40
53962;DHT22;39868;53.398;6.564;2023-06-14T02:53:57;18.10;58.50
53962;DHT22;39868;53.398;6.564;2023-06-14T02:56:24;18.10;58.60
53962;DHT22;39868;53.398;6.564;2023-06-14T02:58:53;18.10;58.70
53962;DHT22;39868;53.398;6.564;2023-06-14T03:01:21;18.10;58.90
53962;DHT22;39868;53.398;6.564;2023-06-14T03:03:49;18.10;58.90
53962;DHT22;39868;53.398;6.564;2023-06-14T03:06:17;18.10;58.90
53962;DHT22;39868;53.398;6.564;2023-06-14T03:08:48;18.10;59.00
53962;DHT22;39868;53.398;6.564;2023-06-14T03:11:17;18.10;59.00
53962;DHT22;39868;53.398;6.564;2023-06-14T03:13:52;18.10;59.00
53962;DHT22;39868;53.398;6.564;2023-06-14T03:16:20;18.10;59.40
53962;DHT22;39868;53.398;6.564;2023-06-14T03:18:50;18.10;59.30
53962;DHT22;39868;53.398;6.564;2023-06-14T03:21:21;18.10;59.30
53962;DHT22;39868;53.398;6.564;2023-06-14T03:23:50;18.10;59.40
53962;DHT22;39868;53.398;6.564;2023-06-14T03:26:18;18.10;59.40
53962;DHT22;39868;53.398;6.564;2023-06-14T03:28:51;18.10;59.50
53962;DHT22;39868;53.398;6.564;2023-06-14T03:31:19;18.10;59.50
53962;DHT22;39868;53.398;6.564;2023-06-14T03:33:48;18.10;59.50
53962;DHT22;39868;53.398;6.564;2023-06-14T03:36:15;18.10;59.60
53962;DHT22;39868;53.398;6.564;2023-06-14T03:38:45;18.10;59.70
53962;DHT22;39868;53.398;6.564;2023-06-14T03:41:15;18.20;59.80
53962;DHT22;39868;53.398;6.564;2023-06-14T03:43:43;18.20;59.80
53962;DHT22;39868;53.398;6.564;2023-06-14T03:46:10;18.20;59.80
53962;DHT22;39868;53.398;6.564;2023-06-14T03:48:38;18.20;60.00
53962;DHT22;39868;53.398;6.564;2023-06-14T03:51:06;18.20;60.10
53962;DHT22;39868;53.398;6.564;2023-06-14T03:53:36;18.20;60.10
53962;DHT22;39868;53.398;6.564;2023-06-14T03:56:21;18.20;60.20
53962;DHT22;39868;53.398;6.564;2023-06-14T03:58:48;18.30;60.30
53962;DHT22;39868;53.398;6.564;2023-06-14T04:01:16;18.20;60.40
53962;DHT22;39868;53.398;6.564;2023-06-14T04:03:43;18.20;60.50
53962;DHT22;39868;53.398;6.564;2023-06-14T04:06:11;18.30;60.60
53962;DHT22;39868;53.398;6.564;2023-06-14T04:08:38;18.30;60.80
53962;DHT22;39868;53.398;6.564;2023-06-14T04:11:06;18.30;60.80
53962;DHT22;39868;53.398;6.564;2023-06-14T04:13:34;18.30;60.70
53962;DHT22;39868;53.398;6.564;2023-06-14T04:16:04;18.30;60.90
53962;DHT22;39868;53.398;6.564;2023-06-14T04:18:34;18.30;61.00
53962;DHT22;39868;53.398;6.564;2023-06-14T04:21:01;18.40;61.00
53962;DHT22;39868;53.398;6.564;2023-06-14T04:23:29;18.40;61.10
53962;DHT22;39868;53.398;6.564;2023-06-14T04:25:58;18.40;61.10
53962;DHT22;39868;53.398;6.564;2023-06-14T04:28:29;18.40;61.30
53962;DHT22;39868;53.398;6.564;2023-06-14T04:30:59;18.50;61.40
53962;DHT22;39868;53.398;6.564;2023-06-14T04:33:30;18.50;61.40
53962;DHT22;39868;53.398;6.564;2023-06-14T04:35:59;18.50;61.40
53962;DHT22;39868;53.398;6.564;2023-06-14T04:38:27;18.50;61.40
53962;DHT22;39868;53.398;6.564;2023-06-14T04:40:56;18.50;61.60
53962;DHT22;39868;53.398;6.564;2023-06-14T04:43:24;18.60;61.60
53962;DHT22;39868;53.398;6.564;2023-06-14T04:45:55;18.60;61.70
53962;DHT22;39868;53.398;6.564;2023-06-14T04:48:25;18.60;61.80
53962;DHT22;39868;53.398;6.564;2023-06-14T04:50:53;18.70;61.90
53962;DHT22;39868;53.398;6.564;2023-06-14T04:53:21;18.70;62.00
53962;DHT22;39868;53.398;6.564;2023-06-14T04:55:53;18.70;61.90
53962;DHT22;39868;53.398;6.564;2023-06-14T04:58:21;18.70;61.80
53962;DHT22;39868;53.398;6.564;2023-06-14T05:00:49;18.80;62.00
53962;DHT22;39868;53.398;6.564;2023-06-14T05:03:16;18.80;62.00
53962;DHT22;39868;53.398;6.564;2023-06-14T05:05:46;18.80;62.00
53962;DHT22;39868;53.398;6.564;2023-06-14T05:08:13;18.90;62.10
53962;DHT22;39868;53.398;6.564;2023-06-14T05:10:41;18.90;62.20
53962;DHT22;39868;53.398;6.564;2023-06-14T05:13:08;18.90;62.30
53962;DHT22;39868;53.398;6.564;2023-06-14T05:15:37;18.90;62.20
53962;DHT22;39868;53.398;6.564;2023-06-14T05:18:05;19.00;62.40
53962;DHT22;39868;53.398;6.564;2023-06-14T05:20:36;19.00;62.50
53962;DHT22;39868;53.398;6.564;2023-06-14T05:23:09;19.00;62.50
53962;DHT22;39868;53.398;6.564;2023-06-14T05:25:46;19.10;62.50
53962;DHT22;39868;53.398;6.564;2023-06-14T05:28:13;19.10;62.50
53962;DHT22;39868;53.398;6.564;2023-06-14T05:30:41;19.10;62.50
53962;DHT22;39868;53.398;6.564;2023-06-14T05:33:08;19.10;62.50
53962;DHT22;39868;53.398;6.564;2023-06-14T05:35:36;19.20;62.60
53962;DHT22;39868;53.398;6.564;2023-06-14T05:38:05;19.20;62.80
53962;DHT22;39868;53.398;6.564;2023-06-14T05:40:34;19.20;63.00
53962;DHT22;39868;53.398;6.564;2023-06-14T05:43:02;19.30;63.10
53962;DHT22;39868;53.398;6.564;2023-06-14T05:45:29;19.30;63.10
53962;DHT22;39868;53.398;6.564;2023-06-14T05:47:57;19.30;62.90
53962;DHT22;39868;53.398;6.564;2023-06-14T05:50:24;19.40;63.10
53962;DHT22;39868;53.398;6.564;2023-06-14T05:52:53;19.40;63.00
53962;DHT22;39868;53.398;6.564;2023-06-14T05:55:20;19.40;63.00
53962;DHT22;39868;53.398;6.564;2023-06-14T05:57:48;19.50;62.90
53962;DHT22;39868;53.398;6.564;2023-06-14T06:00:16;19.50;63.10
53962;DHT22;39868;53.398;6.564;2023-06-14T06:02:45;19.60;63.30
53962;DHT22;39868;53.398;6.564;2023-06-14T06:05:13;19.60;63.10
53962;DHT22;39868;53.398;6.564;2023-06-14T06:07:41;19.70;63.20
53962;DHT22;39868;53.398;6.564;2023-06-14T06:10:09;19.70;63.00
53962;DHT22;39868;53.398;6.564;2023-06-14T06:12:37;19.80;63.30
53962;DHT22;39868;53.398;6.564;2023-06-14T06:15:05;19.80;63.30
53962;DHT22;39868;53.398;6.564;2023-06-14T06:17:33;19.90;63.30
53962;DHT22;39868;53.398;6.564;2023-06-14T06:20:20;20.00;63.30
53962;DHT22;39868;53.398;6.564;2023-06-14T06:22:55;20.00;63.20
53962;DHT22;39868;53.398;6.564;2023-06-14T06:25:22;20.10;62.90
53962;DHT22;39868;53.398;6.564;2023-06-14T06:27:50;20.10;63.10
53962;DHT22;39868;53.398;6.564;2023-06-14T06:30:18;20.20;63.20
53962;DHT22;39868;53.398;6.564;2023-06-14T06:32:46;20.30;63.30
53962;DHT22;39868;53.398;6.564;2023-06-14T06:35:14;20.30;63.30
53962;DHT22;39868;53.398;6.564;2023-06-14T06:37:42;20.40;63.00
53962;DHT22;39868;53.398;6.564;2023-06-14T06:40:10;20.50;63.20
53962;DHT22;39868;53.398;6.564;2023-06-14T06:42:37;20.60;63.10
53962;DHT22;39868;53.398;6.564;2023-06-14T06:45:10;20.60;63.20
53962;DHT22;39868;53.398;6.564;2023-06-14T06:47:37;20.70;62.40
53962;DHT22;39868;53.398;6.564;2023-06-14T06:50:05;20.70;62.60
53962;DHT22;39868;53.398;6.564;2023-06-14T06:52:34;20.80;62.60
53962;DHT22;39868;53.398;6.564;2023-06-14T06:55:02;20.90;62.70
53962;DHT22;39868;53.398;6.564;2023-06-14T06:57:30;21.00;63.00
53962;DHT22;39868;53.398;6.564;2023-06-14T06:59:58;21.00;62.60
53962;DHT22;39868;53.398;6.564;2023-06-14T07:02:25;21.10;62.20
53962;DHT22;39868;53.398;6.564;2023-06-14T07:04:52;21.20;62.30
53962;DHT22;39868;53.398;6.564;2023-06-14T07:07:20;21.20;62.10
53962;DHT22;39868;53.398;6.564;2023-06-14T07:09:47;21.30;62.30
53962;DHT22;39868;53.398;6.564;2023-06-14T07:12:14;21.40;62.30
53962;DHT22;39868;53.398;6.564;2023-06-14T07:14:42;21.40;62.10
53962;DHT22;39868;53.398;6.564;2023-06-14T07:17:09;21.50;62.10
53962;DHT22;39868;53.398;6.564;2023-06-14T07:19:37;21.60;62.20
53962;DHT22;39868;53.398;6.564;2023-06-14T07:22:07;21.60;61.80
53962;DHT22;39868;53.398;6.564;2023-06-14T07:24:35;21.70;62.20
53962;DHT22;39868;53.398;6.564;2023-06-14T07:27:03;21.80;62.20
53962;DHT22;39868;53.398;6.564;2023-06-14T07:29:31;21.90;61.80
53962;DHT22;39868;53.398;6.564;2023-06-14T07:31:58;22.00;62.10
53962;DHT22;39868;53.398;6.564;2023-06-14T07:34:25;22.10;61.40
53962;DHT22;39868;53.398;6.564;2023-06-14T07:36:54;22.10;61.30
53962;DHT22;39868;53.398;6.564;2023-06-14T07:39:21;22.20;61.50
53962;DHT22;39868;53.398;6.564;2023-06-14T07:41:49;22.30;61.10
53962;DHT22;39868;53.398;6.564;2023-06-14T07:44:17;22.40;60.80
53962;DHT22;39868;53.398;6.564;2023-06-14T07:46:44;22.50;61.00
53962;DHT22;39868;53.398;6.564;2023-06-14T07:49:13;22.50;61.40
53962;DHT22;39868;53.398;6.564;2023-06-14T07:51:41;22.60;60.20
53962;DHT22;39868;53.398;6.564;2023-06-14T07:54:09;22.70;60.10
53962;DHT22;39868;53.398;6.564;2023-06-14T07:56:36;22.80;60.00
53962;DHT22;39868;53.398;6.564;2023-06-14T07:59:04;22.90;60.20
53962;DHT22;39868;53.398;6.564;2023-06-14T08:01:33;22.90;59.80
53962;DHT22;39868;53.398;6.564;2023-06-14T08:04:00;23.00;59.80
53962;DHT22;39868;53.398;6.564;2023-06-14T08:06:28;23.10;59.70
53962;DHT22;39868;53.398;6.564;2023-06-14T08:08:55;23.20;59.30
53962;DHT22;39868;53.398;6.564;2023-06-14T08:11:23;23.20;59.60
53962;DHT22;39868;53.398;6.564;2023-06-14T08:13:51;23.30;59.50
53962;DHT22;39868;53.398;6.564;2023-06-14T08:16:18;23.40;59.40
53962;DHT22;39868;53.398;6.564;2023-06-14T08:18:46;23.40;59.30
53962;DHT22;39868;53.398;6.564;2023-06-14T08:21:13;23.50;58.90
53962;DHT22;39868;53.398;6.564;2023-06-14T08:23:41;23.50;58.50
53962;DHT22;39868;53.398;6.564;2023-06-14T08:26:10;23.60;58.40
53962;DHT22;39868;53.398;6.564;2023-06-14T08:28:38;23.60;58.40
53962;DHT22;39868;53.398;6.564;2023-06-14T08:31:05;23.70;58.40
53962;DHT22;39868;53.398;6.564;2023-06-14T08:33:32;23.80;58.20
53962;DHT22;39868;53.398;6.564;2023-06-14T08:36:00;23.90;58.00
53962;DHT22;39868;53.398;6.564;2023-06-14T08:38:28;23.90;57.50
53962;DHT22;39868;53.398;6.564;2023-06-14T08:40:57;24.00;57.20
53962;DHT22;39868;53.398;6.564;2023-06-14T08:43:25;24.00;56.90
53962;DHT22;39868;53.398;6.564;2023-06-14T08:45:58;24.10;56.70
53962;DHT22;39868;53.398;6.564;2023-06-14T08:48:27;24.10;56.50
53962;DHT22;39868;53.398;6.564;2023-06-14T08:50:59;24.20;56.30
53962;DHT22;39868;53.398;6.564;2023-06-14T08:53:31;24.20;56.20
53962;DHT22;39868;53.398;6.564;2023-06-14T08:56:04;24.30;56.70
53962;DHT22;39868;53.398;6.564;2023-06-14T08:58:32;24.30;56.30
53962;DHT22;39868;53.398;6.564;2023-06-14T09:01:04;24.30;56.30
53962;DHT22;39868;53.398;6.564;2023-06-14T09:03:32;24.40;56.50
53962;DHT22;39868;53.398;6.564;2023-06-14T09:06:00;24.40;56.00
53962;DHT22;39868;53.398;6.564;2023-06-14T09:08:28;24.50;56.40
53962;DHT22;39868;53.398;6.564;2023-06-14T09:10:57;24.50;56.10
53962;DHT22;39868;53.398;6.564;2023-06-14T09:13:26;24.60;56.30
53962;DHT22;39868;53.398;6.564;2023-06-14T09:15:57;24.60;56.30
53962;DHT22;39868;53.398;6.564;2023-06-14T09:18:39;24.70;57.20
53962;DHT22;39868;53.398;6.564;2023-06-14T09:21:08;24.70;56.30
53962;DHT22;39868;53.398;6.564;2023-06-14T09:23:40;24.80;55.80
53962;DHT22;39868;53.398;6.564;2023-06-14T09:26:13;24.90;55.20
53962;DHT22;39868;53.398;6.564;2023-06-14T09:28:47;24.90;55.20
53962;DHT22;39868;53.398;6.564;2023-06-14T09:31:16;24.90;56.60
53962;DHT22;39868;53.398;6.564;2023-06-14T09:33:46;25.00;55.30
53962;DHT22;39868;53.398;6.564;2023-06-14T09:36:17;25.10;55.20
53962;DHT22;39868;53.398;6.564;2023-06-14T09:38:57;25.10;56.30
53962;DHT22;39868;53.398;6.564;2023-06-14T09:41:38;25.20;54.80
53962;DHT22;39868;53.398;6.564;2023-06-14T09:44:08;25.20;55.00
53962;DHT22;39868;53.398;6.564;2023-06-14T09:46:41;25.30;54.80
53962;DHT22;39868;53.398;6.564;2023-06-14T09:49:09;25.30;54.60
53962;DHT22;39868;53.398;6.564;2023-06-14T09:51:42;25.30;54.20
53962;DHT22;39868;53.398;6.564;2023-06-14T09:54:16;25.40;54.30
53962;DHT22;39868;53.398;6.564;2023-06-14T09:56:45;25.40;53.50
53962;DHT22;39868;53.398;6.564;2023-06-14T09:59:14;25.50;53.70
53962;DHT22;39868;53.398;6.564;2023-06-14T10:01:45;25.50;54.00
53962;DHT22;39868;53.398;6.564;2023-06-14T10:04:13;25.50;53.70
53962;DHT22;39868;53.398;6.564;2023-06-14T10:06:45;25.60;54.10
53962;DHT22;39868;53.398;6.564;2023-06-14T10:09:13;25.60;53.90
53962;DHT22;39868;53.398;6.564;2023-06-14T10:11:41;25.70;54.60
53962;DHT22;39868;53.398;6.564;2023-06-14T10:14:14;25.70;54.60
53962;DHT22;39868;53.398;6.564;2023-06-14T10:19:20;25.90;53.70
53962;DHT22;39868;53.398;6.564;2023-06-14T10:22:00;25.90;53.60
53962;DHT22;39868;53.398;6.564;2023-06-14T10:24:40;26.00;53.80
53962;DHT22;39868;53.398;6.564;2023-06-14T10:27:09;26.00;53.80
53962;DHT22;39868;53.398;6.564;2023-06-14T10:32:25;26.20;52.90
53962;DHT22;39868;53.398;6.564;2023-06-14T10:35:03;26.20;53.20
53962;DHT22;39868;53.398;6.564;2023-06-14T10:37:31;26.30;53.50
53962;DHT22;39868;53.398;6.564;2023-06-14T10:39:59;26.30;53.30
53962;DHT22;39868;53.398;6.564;2023-06-14T10:42:32;26.30;53.60
53962;DHT22;39868;53.398;6.564;2023-06-14T10:45:00;26.30;53.90
53962;DHT22;39868;53.398;6.564;2023-06-14T10:47:30;26.30;53.60
53962;DHT22;39868;53.398;6.564;2023-06-14T10:52:31;26.20;52.80
53962;DHT22;39868;53.398;6.564;2023-06-14T10:55:08;26.20;53.10
53962;DHT22;39868;53.398;6.564;2023-06-14T10:57:45;26.10;52.70
53962;DHT22;39868;53.398;6.564;2023-06-14T11:00:16;26.10;53.20
53962;DHT22;39868;53.398;6.564;2023-06-14T11:08:27;26.00;53.40
53962;DHT22;39868;53.398;6.564;2023-06-14T11:10:59;26.00;53.50
53962;DHT22;39868;53.398;6.564;2023-06-14T11:13:27;26.00;53.90
53962;DHT22;39868;53.398;6.564;2023-06-14T11:15:59;26.00;53.60
53962;DHT22;39868;53.398;6.564;2023-06-14T11:18:28;25.90;53.80
53962;DHT22;39868;53.398;6.564;2023-06-14T11:20:55;25.90;53.60
53962;DHT22;39868;53.398;6.564;2023-06-14T11:23:23;25.80;53.90
53962;DHT22;39868;53.398;6.564;2023-06-14T11:25:54;25.70;54.20
53962;DHT22;39868;53.398;6.564;2023-06-14T11:28:24;25.70;54.20
53962;DHT22;39868;53.398;6.564;2023-06-14T11:31:03;25.70;54.00
53962;DHT22;39868;53.398;6.564;2023-06-14T11:33:31;25.60;54.10
53962;DHT22;39868;53.398;6.564;2023-06-14T11:35:58;25.60;54.50
53962;DHT22;39868;53.398;6.564;2023-06-14T11:38:26;25.60;54.20
53962;DHT22;39868;53.398;6.564;2023-06-14T11:40:53;25.60;54.40
53962;DHT22;39868;53.398;6.564;2023-06-14T11:43:25;25.60;55.20
53962;DHT22;39868;53.398;6.564;2023-06-14T11:45:53;25.60;55.00
53962;DHT22;39868;53.398;6.564;2023-06-14T11:48:41;25.70;55.20
53962;DHT22;39868;53.398;6.564;2023-06-14T11:51:09;25.70;55.80
53962;DHT22;39868;53.398;6.564;2023-06-14T11:53:37;25.80;56.00
53962;DHT22;39868;53.398;6.564;2023-06-14T11:56:04;25.80;55.20
53962;DHT22;39868;53.398;6.564;2023-06-14T11:58:32;25.80;55.00
53962;DHT22;39868;53.398;6.564;2023-06-14T12:01:00;25.90;55.50
53962;DHT22;39868;53.398;6.564;2023-06-14T12:03:28;25.90;55.60
53962;DHT22;39868;53.398;6.564;2023-06-14T12:06:13;25.90;55.50
53962;DHT22;39868;53.398;6.564;2023-06-14T12:08:43;25.90;56.70
53962;DHT22;39868;53.398;6.564;2023-06-14T12:11:13;26.00;57.20
53962;DHT22;39868;53.398;6.564;2023-06-14T12:13:44;26.00;56.80
53962;DHT22;39868;53.398;6.564;2023-06-14T12:16:11;25.90;55.90
53962;DHT22;39868;53.398;6.564;2023-06-14T12:18:40;25.90;55.90
53962;DHT22;39868;53.398;6.564;2023-06-14T12:21:09;26.00;56.20
53962;DHT22;39868;53.398;6.564;2023-06-14T12:23:47;26.00;56.10
53962;DHT22;39868;53.398;6.564;2023-06-14T12:26:16;26.00;56.10
53962;DHT22;39868;53.398;6.564;2023-06-14T12:28:47;26.00;56.10
53962;DHT22;39868;53.398;6.564;2023-06-14T12:31:16;26.00;55.40
53962;DHT22;39868;53.398;6.564;2023-06-14T12:33:43;26.00;56.00
53962;DHT22;39868;53.398;6.564;2023-06-14T12:36:13;25.90;55.80
53962;DHT22;39868;53.398;6.564;2023-06-14T12:38:41;25.90;55.80
53962;DHT22;39868;53.398;6.564;2023-06-14T12:41:08;25.90;55.60
53962;DHT22;39868;53.398;6.564;2023-06-14T12:43:36;25.90;55.50
53962;DHT22;39868;53.398;6.564;2023-06-14T12:46:03;25.90;55.80
53962;DHT22;39868;53.398;6.564;2023-06-14T12:48:31;26.00;56.00
53962;DHT22;39868;53.398;6.564;2023-06-14T12:50:58;26.00;55.40
53962;DHT22;39868;53.398;6.564;2023-06-14T12:53:26;26.00;54.60
53962;DHT22;39868;53.398;6.564;2023-06-14T12:55:53;26.00;54.70
53962;DHT22;39868;53.398;6.564;2023-06-14T12:58:21;26.10;54.50
53962;DHT22;39868;53.398;6.564;2023-06-14T13:00:48;26.10;54.40
53962;DHT22;39868;53.398;6.564;2023-06-14T13:03:15;26.10;54.80
53962;DHT22;39868;53.398;6.564;2023-06-14T13:05:43;26.10;54.70
53962;DHT22;39868;53.398;6.564;2023-06-14T13:08:10;26.10;54.00
53962;DHT22;39868;53.398;6.564;2023-06-14T13:10:38;26.00;54.30
53962;DHT22;39868;53.398;6.564;2023-06-14T13:13:05;26.00;53.60
53962;DHT22;39868;53.398;6.564;2023-06-14T13:15:35;26.00;54.10
53962;DHT22;39868;53.398;6.564;2023-06-14T13:18:02;26.00;53.80
53962;DHT22;39868;53.398;6.564;2023-06-14T13:20:30;26.00;54.00
53962;DHT22;39868;53.398;6.564;2023-06-14T13:22:58;26.00;54.60
53962;DHT22;39868;53.398;6.564;2023-06-14T13:25:26;26.10;54.50
53962;DHT22;39868;53.398;6.564;2023-06-14T13:27:54;26.10;54.10
53962;DHT22;39868;53.398;6.564;2023-06-14T13:30:21;26.20;53.90
53962;DHT22;39868;53.398;6.564;2023-06-14T13:32:48;26.10;54.20
53962;DHT22;39868;53.398;6.564;2023-06-14T13:35:18;26.10;54.20
53962;DHT22;39868;53.398;6.564;2023-06-14T13:37:46;26.10;54.20
53962;DHT22;39868;53.398;6.564;2023-06-14T13:40:14;26.10;54.40
53962;DHT22;39868;53.398;6.564;2023-06-14T13:42:42;26.20;54.70
53962;DHT22;39868;53.398;6.564;2023-06-14T13:45:11;26.20;54.40
53962;DHT22;39868;53.398;6.564;2023-06-14T13:47:39;26.30;54.20
53962;DHT22;39868;53.398;6.564;2023-06-14T13:50:07;26.30;53.80
53962;DHT22;39868;53.398;6.564;2023-06-14T13:52:35;26.30;53.80
53962;DHT22;39868;53.398;6.564;2023-06-14T13:55:03;26.30;53.20
53962;DHT22;39868;53.398;6.564;2023-06-14T13:57:31;26.30;52.40
53962;DHT22;39868;53.398;6.564;2023-06-14T13:59:58;26.20;52.40
53962;DHT22;39868;53.398;6.564;2023-06-14T14:02:38;26.20;52.50
53962;DHT22;39868;53.398;6.564;2023-06-14T14:05:07;26.20;52.50
53962;DHT22;39868;53.398;6.564;2023-06-14T14:07:35;26.20;52.20
53962;DHT22;39868;53.398;6.564;2023-06-14T14:10:03;26.20;52.80
53962;DHT22;39868;53.398;6.564;2023-06-14T14:12:31;26.20;53.00
53962;DHT22;39868;53.398;6.564;2023-06-14T14:14:59;26.20;52.80
53962;DHT22;39868;53.398;6.564;2023-06-14T14:17:27;26.30;52.90
53962;DHT22;39868;53.398;6.564;2023-06-14T14:19:54;26.30;53.10
53962;DHT22;39868;53.398;6.564;2023-06-14T14:22:22;26.40;53.10
53962;DHT22;39868;53.398;6.564;2023-06-14T14:24:49;26.50;52.60
53962;DHT22;39868;53.398;6.564;2023-06-14T14:27:17;26.50;52.00
53962;DHT22;39868;53.398;6.564;2023-06-14T14:29:44;26.60;51.80
53962;DHT22;39868;53.398;6.564;2023-06-14T14:32:12;26.60;52.30
53962;DHT22;39868;53.398;6.564;2023-06-14T14:34:41;26.60;52.10
53962;DHT22;39868;53.398;6.564;2023-06-14T14:37:09;26.60;51.70
53962;DHT22;39868;53.398;6.564;2023-06-14T14:39:37;26.70;51.50
53962;DHT22;39868;53.398;6.564;2023-06-14T14:42:04;26.70;51.30
53962;DHT22;39868;53.398;6.564;2023-06-14T14:44:34;26.70;50.70
53962;DHT22;39868;53.398;6.564;2023-06-14T14:47:02;26.70;50.70
53962;DHT22;39868;53.398;6.564;2023-06-14T14:49:31;26.70;50.50
53962;DHT22;39868;53.398;6.564;2023-06-14T14:51:58;26.70;50.90
53962;DHT22;39868;53.398;6.564;2023-06-14T14:54:34;26.70;51.00
53962;DHT22;39868;53.398;6.564;2023-06-14T14:57:03;26.70;50.90
53962;DHT22;39868;53.398;6.564;2023-06-14T14:59:30;26.70;50.90
53962;DHT22;39868;53.398;6.564;2023-06-14T15:01:58;26.70;51.00
53962;DHT22;39868;53.398;6.564;2023-06-14T15:04:25;26.70;52.10
53962;DHT22;39868;53.398;6.564;2023-06-14T15:06:52;26.70;50.90
53962;DHT22;39868;53.398;6.564;2023-06-14T15:09:20;26.70;51.00
53962;DHT22;39868;53.398;6.564;2023-06-14T15:11:47;26.70;51.40
53962;DHT22;39868;53.398;6.564;2023-06-14T15:14:15;26.70;50.90
53962;DHT22;39868;53.398;6.564;2023-06-14T15:16:42;26.70;51.20
53962;DHT22;39868;53.398;6.564;2023-06-14T15:19:10;26.70;51.50
53962;DHT22;39868;53.398;6.564;2023-06-14T15:21:37;26.60;51.80
53962;DHT22;39868;53.398;6.564;2023-06-14T15:24:05;26.70;51.60
53962;DHT22;39868;53.398;6.564;2023-06-14T15:26:32;26.60;51.50
53962;DHT22;39868;53.398;6.564;2023-06-14T15:29:00;26.50;51.50
53962;DHT22;39868;53.398;6.564;2023-06-14T15:31:27;26.50;50.60
53962;DHT22;39868;53.398;6.564;2023-06-14T15:33:56;26.50;51.20
53962;DHT22;39868;53.398;6.564;2023-06-14T15:36:24;26.40;51.40
53962;DHT22;39868;53.398;6.564;2023-06-14T15:38:52;26.40;51.50
53962;DHT22;39868;53.398;6.564;2023-06-14T15:41:20;26.40;51.60
53962;DHT22;39868;53.398;6.564;2023-06-14T15:43:47;26.40;51.90
53962;DHT22;39868;53.398;6.564;2023-06-14T15:46:15;26.30;51.30
53962;DHT22;39868;53.398;6.564;2023-06-14T15:48:42;26.30;52.50
53962;DHT22;39868;53.398;6.564;2023-06-14T15:51:10;26.30;52.80
53962;DHT22;39868;53.398;6.564;2023-06-14T15:53:37;26.30;52.70
53962;DHT22;39868;53.398;6.564;2023-06-14T15:56:05;26.30;52.00